Time;durP1;ratioP1;P1;durP2;ratioP2;P2;SDS_P1;SDS_P2;PMS_P1;PMS_P2;Temp;Humidity;BMP_temperature;BMP_pressure;BME280_temperature;BME280_humidity;BME280_pressure;Samples;Min_cycle;Max_cycle;Signal;HPM_P1;HPM_P2
2021/12/20 00:01:50;;;;;;;21.77;8.13;;;;;;;-2.31;95.13;94578.47;4841338;29;20050;-63
2021/12/20 00:04:17;;;;;;;20.98;8.00;;;;;;;-2.23;94.85;94579.56;4840236;29;20523;-64
2021/12/20 00:06:44;;;;;;;20.10;8.27;;;;;;;-2.32;94.50;94579.53;4841291;29;20453;-64
2021/12/20 00:09:10;;;;;;;20.80;8.20;;;;;;;-2.22;94.57;94568.47;4854699;29;20058;-64
2021/12/20 00:11:37;;;;;;;22.35;8.55;;;;;;;-2.12;94.46;94566.56;4841450;29;20046;-64
2021/12/20 00:14:04;;;;;;;21.15;8.85;;;;;;;-1.99;93.65;94567.47;4840209;29;20053;-63
2021/12/20 00:16:31;;;;;;;22.73;9.40;;;;;;;-2.07;93.63;94564.50;4841308;29;20546;-63
2021/12/20 00:18:58;;;;;;;22.52;9.32;;;;;;;-2.04;93.25;94566.53;4840803;29;20526;-62
2021/12/20 00:21:25;;;;;;;22.83;9.90;;;;;;;-1.98;93.34;94556.41;4854923;29;20065;-64
2021/12/20 00:23:52;;;;;;;19.95;8.88;;;;;;;-1.91;92.85;94551.34;4840667;29;20131;-62
2021/12/20 00:26:19;;;;;;;20.55;8.70;;;;;;;-1.83;92.76;94552.44;4840719;29;20054;-63
2021/12/20 00:28:46;;;;;;;21.73;9.18;;;;;;;-1.81;91.93;94556.38;4841057;29;20046;-64
2021/12/20 00:31:12;;;;;;;22.75;8.98;;;;;;;-1.82;91.74;94556.69;4838931;29;20472;-63
2021/12/20 00:33:39;;;;;;;18.57;8.13;;;;;;;-1.84;92.00;94562.38;4840792;29;20579;-63
2021/12/20 00:36:08;;;;;;;19.80;8.00;;;;;;;-1.79;91.69;94558.75;4839983;29;20065;-63
2021/12/20 00:41:23;;;;;;;17.95;7.43;;;;;;;-1.77;91.25;94564.59;4839491;29;20451;-63
2021/12/20 00:43:50;;;;;;;17.80;7.90;;;;;;;-1.67;91.06;94563.44;4840474;29;20054;-62
2021/12/20 00:46:17;;;;;;;16.80;7.53;;;;;;;-1.71;90.86;94563.31;4840523;29;20042;-63
2021/12/20 00:48:44;;;;;;;18.02;7.45;;;;;;;-1.82;90.70;94564.75;4839378;29;20050;-63
2021/12/20 00:51:11;;;;;;;18.95;7.70;;;;;;;-1.69;91.06;94573.75;4838522;29;20342;-63
2021/12/20 00:53:37;;;;;;;24.63;9.00;;;;;;;-1.58;90.78;94569.59;4840670;29;20492;-63
2021/12/20 00:56:04;;;;;;;26.13;9.43;;;;;;;-1.48;90.26;94569.25;4839301;29;20053;-63
2021/12/20 00:58:31;;;;;;;22.97;8.50;;;;;;;-1.38;89.70;94564.63;4840135;29;20061;-63
2021/12/20 01:00:58;;;;;;;18.67;7.47;;;;;;;-1.29;89.63;94563.47;4832401;29;20074;-63
2021/12/20 01:03:27;;;;;;;18.30;7.35;;;;;;;-1.28;89.46;94556.19;4816205;29;20430;-64
2021/12/20 01:05:54;;;;;;;17.65;7.63;;;;;;;-1.18;89.03;94555.81;4821242;29;20425;-63
2021/12/20 01:08:21;;;;;;;17.52;8.02;;;;;;;-1.40;89.24;94540.72;4839985;29;20427;-64
2021/12/20 01:10:52;;;;;;;17.03;7.80;;;;;;;-1.27;89.23;94549.66;4839221;29;20439;-64
2021/12/20 01:13:22;;;;;;;18.15;7.30;;;;;;;-1.38;88.72;94549.25;4838009;29;21638;-63
2021/12/20 01:15:52;;;;;;;18.85;8.07;;;;;;;-1.65;90.74;94540.50;4840355;29;20415;-63
2021/12/20 01:18:21;;;;;;;21.73;8.98;;;;;;;-1.60;90.41;94544.91;4839080;29;20057;-63
2021/12/20 01:20:49;;;;;;;19.48;8.20;;;;;;;-1.42;90.61;94541.03;4840291;29;20455;-64
2021/12/20 01:23:17;;;;;;;21.30;8.43;;;;;;;-1.34;90.01;94554.78;4839449;29;20046;-63
2021/12/20 01:25:45;;;;;;;26.25;10.27;;;;;;;-1.32;89.58;94566.81;4840006;29;20117;-64
2021/12/20 01:28:12;;;;;;;19.05;8.18;;;;;;;-1.51;90.51;94567.22;4839306;29;20038;-64
2021/12/20 01:30:40;;;;;;;17.25;7.57;;;;;;;-1.41;90.46;94549.88;4840202;29;20050;-63
2021/12/20 01:33:09;;;;;;;21.17;8.60;;;;;;;-1.32;90.29;94541.78;4839032;29;20500;-63
2021/12/20 01:35:36;;;;;;;23.13;8.93;;;;;;;-1.39;90.49;94538.81;4839983;29;20519;-63
2021/12/20 01:38:04;;;;;;;21.27;8.40;;;;;;;-1.29;90.04;94535.75;4839464;29;20465;-63
2021/12/20 01:40:32;;;;;;;17.85;8.50;;;;;;;-1.14;89.97;94539.78;4839914;29;20054;-63
2021/12/20 01:42:58;;;;;;;18.13;7.93;;;;;;;-1.48;90.60;94546.94;4839279;29;20064;-63
2021/12/20 01:45:28;;;;;;;17.83;7.78;;;;;;;-1.74;91.74;94537.03;4823144;29;20053;-63
2021/12/20 01:48:12;;;;;;;18.53;7.33;;;;;;;-1.84;92.86;94535.47;4838059;29;20052;-63
2021/12/20 01:53:16;;;;;;;37.00;12.07;;;;;;;-1.71;92.77;94520.25;4839045;29;20491;-64
2021/12/20 01:55:43;;;;;;;29.13;10.73;;;;;;;-1.55;92.44;94519.72;4839541;29;20049;-63
2021/12/20 01:58:10;;;;;;;20.13;8.80;;;;;;;-1.56;92.40;94535.06;4838454;29;20052;-63
2021/12/20 02:00:37;;;;;;;49.00;20.73;;;;;;;-1.34;91.91;94531.34;4839389;29;20077;-63
2021/12/20 02:03:04;;;;;;;22.75;9.88;;;;;;;-1.18;91.37;94528.88;4838949;29;20057;-63
2021/12/20 02:08:42;;;;;;;19.58;8.30;;;;;;;-1.04;90.23;94515.19;4839007;29;20492;-63
2021/12/20 02:11:07;;;;;;;16.63;7.28;;;;;;;-1.05;90.21;94500.91;4809683;29;20069;-63
2021/12/20 02:13:34;;;;;;;16.27;7.00;;;;;;;-0.94;89.92;94512.09;4803354;29;20094;-62
2021/12/20 02:16:01;;;;;;;27.90;11.00;;;;;;;-0.90;89.20;94504.94;4815809;29;20055;-62
2021/12/20 02:18:29;;;;;;;21.40;8.93;;;;;;;-1.38;90.47;94508.09;4801348;29;20039;-62
2021/12/20 02:20:56;;;;;;;22.48;10.10;;;;;;;-1.51;91.21;94497.22;4802476;29;20051;-62
2021/12/20 02:23:24;;;;;;;20.58;9.00;;;;;;;-1.42;91.30;94511.41;4802413;29;20054;-63
2021/12/20 02:25:51;;;;;;;16.67;7.53;;;;;;;-1.46;91.03;94505.09;4802123;29;20054;-61
2021/12/20 02:28:20;;;;;;;17.08;7.82;;;;;;;-1.28;91.26;94510.41;4802499;29;20051;-64
2021/12/20 02:38:48;;;;;;;23.33;10.67;;;;;;;-0.88;89.03;94508.09;4802690;29;20051;-64
2021/12/20 02:41:27;;;;;;;21.95;10.40;;;;;;;-0.85;88.62;94512.03;4802123;29;20047;-64
2021/12/20 02:43:57;;;;;;;19.58;9.25;;;;;;;-1.03;89.68;94508.66;4802443;29;20053;-64
2021/12/20 02:48:55;;;;;;;18.05;8.70;;;;;;;-0.98;89.58;94513.88;4802198;29;20408;-65
2021/12/20 02:51:24;;;;;;;19.70;9.00;;;;;;;-1.10;90.12;94509.19;4834089;29;20049;-64
2021/12/20 02:53:51;;;;;;;18.25;9.07;;;;;;;-0.91;89.80;94497.16;4838476;29;20042;-63
2021/12/20 02:56:18;;;;;;;18.15;9.18;;;;;;;-0.85;89.55;94496.63;4837195;29;20045;-64
2021/12/20 02:58:45;;;;;;;19.38;9.38;;;;;;;-0.75;89.17;94505.44;4853083;29;20058;-64
2021/12/20 03:01:12;;;;;;;19.73;9.65;;;;;;;-0.65;88.69;94496.97;4838310;29;20453;-64
2021/12/20 03:03:40;;;;;;;16.60;8.50;;;;;;;-0.77;88.66;94499.59;4839032;29;20129;-64
2021/12/20 03:06:13;;;;;;;20.75;8.75;;;;;;;-1.17;90.17;94495.44;4838483;29;20050;-64
2021/12/20 03:08:44;;;;;;;21.23;10.13;;;;;;;-1.44;92.02;94494.78;4839046;29;20046;-64
2021/12/20 03:11:11;;;;;;;19.85;8.48;;;;;;;-1.35;92.68;94494.75;4807070;29;20057;-64
2021/12/20 03:13:38;;;;;;;21.58;9.68;;;;;;;-1.02;91.06;94500.25;4817057;29;20175;-65
2021/12/20 03:16:06;;;;;;;19.43;8.73;;;;;;;-0.88;90.45;94500.00;4820127;29;20447;-64
2021/12/20 03:18:32;;;;;;;16.73;7.90;;;;;;;-0.71;90.00;94499.06;4820396;29;20067;-64
2021/12/20 03:20:59;;;;;;;17.02;8.20;;;;;;;-0.64;89.06;94493.94;4819926;29;20057;-64
2021/12/20 03:23:26;;;;;;;16.65;7.60;;;;;;;-0.59;89.00;94494.88;4820485;29;20055;-64
2021/12/20 03:25:53;;;;;;;17.08;8.43;;;;;;;-0.63;88.70;94494.72;4820212;29;20051;-64
2021/12/20 03:28:20;;;;;;;15.90;7.40;;;;;;;-0.66;89.26;94492.72;4823249;29;20046;-64
2021/12/20 03:30:46;;;;;;;16.10;7.82;;;;;;;-0.69;88.64;94494.13;4822623;29;20051;-64
2021/12/20 03:33:13;;;;;;;14.25;6.57;;;;;;;-0.90;88.82;94486.06;4836922;29;20193;-65
2021/12/20 03:35:40;;;;;;;9.73;4.85;;;;;;;-0.97;89.27;94483.09;4823619;29;20054;-64
2021/12/20 03:38:09;;;;;;;10.35;5.05;;;;;;;-1.04;89.55;94477.47;4823312;29;20442;-62
2021/12/20 03:40:37;;;;;;;9.83;4.80;;;;;;;-1.04;89.78;94475.53;4807342;29;20054;-62
2021/12/20 03:43:05;;;;;;;8.68;4.22;;;;;;;-1.03;89.85;94479.03;4823115;29;20058;-62
2021/12/20 03:45:33;;;;;;;9.82;4.82;;;;;;;-0.83;88.73;94483.63;4823332;29;20049;-63
2021/12/20 03:48:00;;;;;;;8.43;3.90;;;;;;;-1.06;88.95;94480.47;4823308;29;20046;-62
2021/12/20 03:50:27;;;;;;;9.48;4.63;;;;;;;-0.86;88.81;94478.13;4832011;29;20114;-63
2021/12/20 03:52:54;;;;;;;15.77;7.40;;;;;;;-0.68;88.47;94474.16;4840232;29;20050;-62
2021/12/20 03:55:20;;;;;;;17.55;8.52;;;;;;;-0.60;88.58;94475.22;4855232;29;20052;-62
2021/12/20 03:57:47;;;;;;;17.23;7.88;;;;;;;-0.53;88.67;94477.38;4841556;29;20066;-62
2021/12/20 04:00:15;;;;;;;18.83;8.30;;;;;;;-0.44;88.19;94470.00;4840892;29;20094;-62
2021/12/20 04:02:45;;;;;;;24.15;10.15;;;;;;;-0.49;87.96;94470.97;4841594;29;20094;-62
2021/12/20 04:05:13;;;;;;;14.63;7.80;;;;;;;-0.56;88.39;94476.13;4841033;29;20072;-62
2021/12/20 04:07:40;;;;;;;16.58;8.00;;;;;;;-0.70;89.24;94467.53;4841377;29;20500;-62
2021/12/20 04:10:08;;;;;;;17.42;8.50;;;;;;;-0.51;88.58;94467.03;4825812;29;20080;-62
2021/12/20 04:12:35;;;;;;;15.18;7.30;;;;;;;-0.44;88.26;94480.78;4816059;29;20065;-62
2021/12/20 04:15:02;;;;;;;15.40;7.60;;;;;;;-0.41;88.22;94478.19;4804621;29;20059;-62
2021/12/20 04:17:29;;;;;;;15.20;7.97;;;;;;;-0.47;88.00;94465.25;4804465;29;20047;-62
2021/12/20 04:19:56;;;;;;;17.42;8.43;;;;;;;-0.67;88.90;94469.56;4804273;29;20046;-62
2021/12/20 04:22:23;;;;;;;12.60;5.78;;;;;;;-0.58;88.45;94462.19;4804512;29;20114;-63
2021/12/20 04:24:50;;;;;;;13.68;6.20;;;;;;;-0.51;88.23;94465.13;4818718;29;20049;-63
2021/12/20 04:27:16;;;;;;;15.23;6.65;;;;;;;-0.40;88.00;94470.91;4803655;29;21741;-62
2021/12/20 04:29:43;;;;;;;15.33;7.43;;;;;;;-0.46;87.53;94474.94;4804795;29;20057;-62
2021/12/20 04:32:10;;;;;;;13.00;5.70;;;;;;;-0.42;87.97;94470.47;4818035;29;22763;-62
2021/12/20 04:34:37;;;;;;;14.93;7.38;;;;;;;-0.27;87.37;94467.13;4804323;29;20051;-62
2021/12/20 04:37:06;;;;;;;16.20;8.00;;;;;;;-0.29;87.17;94466.66;4803784;29;20055;-62
2021/12/20 04:39:33;;;;;;;15.20;7.72;;;;;;;-0.29;86.91;94472.06;4804113;29;20107;-63
2021/12/20 04:42:00;;;;;;;12.63;6.43;;;;;;;-0.32;87.10;94475.44;4804162;29;20184;-62
2021/12/20 04:44:27;;;;;;;13.32;5.97;;;;;;;-0.35;87.75;94470.69;4804259;29;20055;-63
2021/12/20 04:46:54;;;;;;;14.20;6.45;;;;;;;-0.26;87.52;94470.63;4804040;29;20111;-62
2021/12/20 04:49:23;;;;;;;14.80;7.15;;;;;;;-0.24;87.55;94476.47;4805019;29;20062;-63
2021/12/20 04:51:54;;;;;;;14.82;6.80;;;;;;;-0.15;87.50;94481.75;4840843;29;20056;-62
2021/12/20 04:54:22;;;;;;;13.67;6.17;;;;;;;-0.12;86.90;94479.19;4839755;29;20653;-62
2021/12/20 04:56:49;;;;;;;15.50;7.07;;;;;;;-0.10;87.04;94479.66;4840414;29;20050;-62
2021/12/20 04:59:16;;;;;;;12.68;6.25;;;;;;;-0.13;87.21;94482.22;4838534;29;20925;-62
2021/12/20 05:01:42;;;;;;;12.63;5.30;;;;;;;-0.19;87.50;94472.78;4839809;29;20397;-62
2021/12/20 05:04:09;;;;;;;13.70;6.30;;;;;;;-0.48;88.70;94472.56;4838580;29;20050;-62
2021/12/20 05:06:36;;;;;;;13.73;6.17;;;;;;;-0.42;88.55;94479.31;4839964;29;20113;-62
2021/12/20 05:09:04;;;;;;;12.75;5.60;;;;;;;-0.56;88.28;94478.81;4839364;29;20124;-64
2021/12/20 05:11:34;;;;;;;15.43;7.18;;;;;;;-0.87;90.18;94480.00;4854157;29;20046;-64
2021/12/20 05:14:02;;;;;;;13.77;6.75;;;;;;;-0.75;90.16;94475.81;4839871;29;20116;-64
2021/12/20 05:16:29;;;;;;;14.02;6.75;;;;;;;-0.57;89.69;94471.84;4840070;29;20059;-64
2021/12/20 05:18:56;;;;;;;14.30;6.70;;;;;;;-0.41;88.74;94477.41;4838703;29;20060;-62
2021/12/20 05:21:23;;;;;;;17.60;7.80;;;;;;;-0.37;88.63;94474.84;4839730;29;20097;-62
2021/12/20 05:23:51;;;;;;;15.88;7.63;;;;;;;-0.42;88.61;94473.94;4840119;29;20500;-62
2021/12/20 05:26:19;;;;;;;21.33;8.38;;;;;;;-0.60;89.02;94480.59;4839260;29;20726;-62
2021/12/20 05:28:45;;;;;;;15.73;6.50;;;;;;;-0.91;90.73;94483.69;4840226;29;20058;-62
2021/12/20 05:31:13;;;;;;;13.27;6.03;;;;;;;-0.79;91.09;94480.28;4839487;29;20492;-62
2021/12/20 05:33:40;;;;;;;13.93;6.18;;;;;;;-0.66;90.59;94488.09;4839745;29;20068;-63
2021/12/20 05:36:07;;;;;;;18.85;8.77;;;;;;;-0.53;90.17;94480.84;4838148;29;20057;-64
2021/12/20 05:38:47;;;;;;;16.10;7.15;;;;;;;-0.43;89.45;94483.13;4839928;29;20050;-64
2021/12/20 05:41:14;;;;;;;15.00;7.00;;;;;;;-0.38;89.08;94482.16;4839496;29;20111;-64
2021/12/20 05:43:41;;;;;;;20.07;6.87;;;;;;;-0.50;89.17;94490.97;4839393;29;20065;-64
2021/12/20 05:46:11;;;;;;;13.88;6.68;;;;;;;-0.50;89.70;94496.38;4839351;29;20057;-64
2021/12/20 05:48:38;;;;;;;16.42;7.63;;;;;;;-0.43;89.29;94480.44;4837911;29;20492;-63
2021/12/20 05:51:05;;;;;;;21.17;10.13;;;;;;;-0.58;90.42;94486.47;4838618;29;20057;-64
2021/12/20 05:53:32;;;;;;;21.42;10.27;;;;;;;-0.38;89.49;94484.84;4839487;29;20169;-64
2021/12/20 05:55:58;;;;;;;18.97;9.17;;;;;;;-0.60;90.11;94504.88;4838907;29;20046;-64
2021/12/20 05:58:25;;;;;;;20.02;9.02;;;;;;;-0.88;91.50;94496.53;4839145;29;20058;-65
2021/12/20 06:00:52;;;;;;;21.20;9.55;;;;;;;-0.69;91.21;94501.44;4829034;29;20057;-64
2021/12/20 06:03:19;;;;;;;20.58;9.98;;;;;;;-0.52;90.95;94489.75;4824826;29;20061;-64
2021/12/20 06:05:46;;;;;;;23.92;10.93;;;;;;;-0.46;90.42;94502.69;4829054;29;20113;-64
2021/12/20 06:08:12;;;;;;;23.23;10.70;;;;;;;-0.42;90.28;94511.69;4822774;29;20042;-64
2021/12/20 06:10:39;;;;;;;22.35;9.82;;;;;;;-0.69;91.18;94506.84;4837729;29;20106;-64
2021/12/20 06:13:06;;;;;;;24.35;10.75;;;;;;;-0.71;91.18;94520.63;4838776;29;20054;-64
2021/12/20 06:15:33;;;;;;;23.35;10.57;;;;;;;-0.57;91.45;94520.38;4838812;29;20054;-64
2021/12/20 06:18:00;;;;;;;19.92;9.20;;;;;;;-0.48;90.92;94513.00;4837578;29;20048;-64
2021/12/20 06:20:27;;;;;;;21.63;9.47;;;;;;;-0.34;90.60;94501.13;4839004;29;20050;-64
2021/12/20 06:22:54;;;;;;;21.60;9.82;;;;;;;-0.45;89.75;94501.53;4838791;29;20060;-62
2021/12/20 06:25:21;;;;;;;22.27;10.05;;;;;;;-0.35;90.03;94511.13;4839117;29;20113;-62
2021/12/20 06:27:48;;;;;;;24.13;10.68;;;;;;;-0.69;90.95;94513.00;4838839;29;20061;-63
2021/12/20 06:30:15;;;;;;;20.40;9.10;;;;;;;-0.74;91.64;94507.03;4838539;29;20117;-62
2021/12/20 06:32:44;;;;;;;18.63;9.30;;;;;;;-0.55;91.14;94517.34;4838731;29;20046;-63
2021/12/20 06:35:30;;;;;;;21.75;9.30;;;;;;;-0.39;90.72;94507.53;4837807;29;20365;-63
2021/12/20 06:38:02;;;;;;;20.77;9.10;;;;;;;-0.69;91.42;94506.84;4838441;29;20050;-62
2021/12/20 06:40:31;;;;;;;21.75;9.18;;;;;;;-0.75;91.51;94505.44;4838755;29;20122;-62
2021/12/20 06:42:58;;;;;;;21.20;9.55;;;;;;;-0.66;91.48;94496.19;4837231;29;20076;-63
2021/12/20 06:45:29;;;;;;;22.47;10.07;;;;;;;-0.55;90.79;94493.88;4838631;29;20042;-63
2021/12/20 06:47:57;;;;;;;35.85;15.65;;;;;;;-0.47;90.44;94487.59;4838290;29;20046;-62
2021/12/20 06:50:24;;;;;;;24.08;10.00;;;;;;;-0.52;90.72;94487.81;4839233;29;20057;-63
2021/12/20 06:52:51;;;;;;;20.63;9.27;;;;;;;-0.44;90.17;94486.97;4838339;29;20042;-61
2021/12/20 06:55:17;;;;;;;20.33;9.85;;;;;;;-0.56;90.26;94492.31;4838856;29;20178;-62
2021/12/20 06:57:44;;;;;;;21.67;9.80;;;;;;;-0.38;90.37;94492.13;4838206;29;20522;-63
2021/12/20 07:00:11;;;;;;;22.83;10.50;;;;;;;-0.49;90.04;94487.16;4850398;29;20054;-64
2021/12/20 07:02:38;;;;;;;26.23;12.43;;;;;;;-0.55;90.74;94485.00;4822928;29;20054;-63
2021/12/20 07:05:06;;;;;;;29.80;13.63;;;;;;;-0.47;90.47;94495.69;4809294;29;20050;-62
2021/12/20 07:07:34;;;;;;;33.28;14.98;;;;;;;-0.45;89.82;94495.38;4842007;29;20062;-64
2021/12/20 07:10:05;;;;;;;28.50;13.43;;;;;;;-0.41;90.39;94502.47;4841616;29;20050;-64
2021/12/20 07:12:37;;;;;;;26.60;12.10;;;;;;;-0.36;90.01;94501.50;4842124;29;20056;-64
2021/12/20 07:15:09;;;;;;;25.45;10.80;;;;;;;-0.55;90.76;94510.03;4841783;29;20054;-62
2021/12/20 07:17:36;;;;;;;28.90;12.45;;;;;;;-0.51;90.15;94510.19;4841844;29;20061;-64
2021/12/20 07:20:03;;;;;;;32.80;15.98;;;;;;;-0.44;90.39;94507.75;4841467;29;20045;-64
2021/12/20 07:22:30;;;;;;;29.30;12.43;;;;;;;-0.37;89.63;94507.19;4841735;29;20056;-64
2021/12/20 07:24:57;;;;;;;27.38;11.65;;;;;;;-0.72;91.18;94510.19;4818413;29;20046;-63
2021/12/20 07:27:24;;;;;;;30.65;12.70;;;;;;;-0.54;91.35;94508.94;4802105;29;20050;-63
2021/12/20 07:29:51;;;;;;;29.48;12.05;;;;;;;-0.46;90.63;94507.28;4811457;29;20062;-62
2021/12/20 07:32:18;;;;;;;29.70;12.60;;;;;;;-0.33;90.83;94505.41;4829753;29;20147;-63
2021/12/20 07:34:45;;;;;;;27.40;12.57;;;;;;;-0.23;89.59;94505.78;4837210;29;20068;-64
2021/12/20 07:37:11;;;;;;;23.05;10.07;;;;;;;-0.53;90.16;94507.81;4836898;29;20155;-63
2021/12/20 07:39:38;;;;;;;23.23;10.00;;;;;;;-0.55;91.32;94504.66;4837093;29;20132;-63
2021/12/20 07:42:07;;;;;;;23.40;10.88;;;;;;;-0.38;90.41;94503.72;4820220;29;20064;-63
2021/12/20 07:44:34;;;;;;;24.23;10.57;;;;;;;-0.25;89.83;94499.94;4837104;29;20057;-63
2021/12/20 07:47:02;;;;;;;25.97;11.10;;;;;;;-0.56;90.64;94510.38;4834563;29;20062;-63
2021/12/20 07:49:29;;;;;;;27.95;10.90;;;;;;;-0.73;92.01;94508.59;4836816;29;20061;-63
2021/12/20 07:51:56;;;;;;;28.58;11.88;;;;;;;-0.42;91.79;94502.81;4837057;29;20137;-63
2021/12/20 07:54:23;;;;;;;32.00;12.25;;;;;;;-0.28;91.01;94497.09;4835665;29;20060;-63
2021/12/20 07:56:49;;;;;;;27.35;12.02;;;;;;;-0.24;89.87;94511.53;4836544;29;20366;-64
2021/12/20 07:59:16;;;;;;;26.93;11.07;;;;;;;-0.61;91.43;94506.75;4836242;29;20952;-63
2021/12/20 08:01:43;;;;;;;25.75;11.38;;;;;;;-0.36;91.53;94517.66;4817573;29;20066;-64
2021/12/20 08:04:09;;;;;;;27.25;11.70;;;;;;;-0.10;90.24;94513.91;4810641;29;20054;-64
2021/12/20 08:06:36;;;;;;;27.25;11.77;;;;;;;0.01;90.27;94515.09;4830838;29;20061;-63
2021/12/20 08:09:04;;;;;;;25.23;11.27;;;;;;;0.15;89.16;94520.97;4836746;29;20094;-62
2021/12/20 08:11:33;;;;;;;29.50;12.63;;;;;;;0.34;88.65;94523.16;4836663;29;20449;-62
2021/12/20 08:14:00;;;;;;;28.50;11.88;;;;;;;0.41;88.04;94514.47;4831955;29;20061;-62
2021/12/20 08:16:27;;;;;;;24.58;11.52;;;;;;;0.56;86.93;94523.81;4818199;29;20110;-63
2021/12/20 08:18:54;;;;;;;26.20;10.98;;;;;;;0.50;87.03;94527.88;4817883;29;20062;-62
2021/12/20 08:21:21;;;;;;;24.30;11.30;;;;;;;0.56;86.91;94519.22;4818536;29;20058;-63
2021/12/20 08:23:49;;;;;;;27.00;11.90;;;;;;;0.73;86.38;94520.91;4818284;29;20106;-63
2021/12/20 08:26:17;;;;;;;24.42;12.13;;;;;;;0.92;85.59;94514.94;4817150;29;20054;-63
2021/12/20 08:28:44;;;;;;;30.60;13.93;;;;;;;0.82;85.14;94511.91;4817956;29;20109;-62
2021/12/20 08:31:11;;;;;;;30.70;12.20;;;;;;;1.02;84.58;94513.69;4817997;29;20076;-62
2021/12/20 08:33:37;;;;;;;45.83;18.92;;;;;;;0.78;84.22;94507.16;4817920;29;20051;-63
2021/12/20 08:36:09;;;;;;;69.37;24.73;;;;;;;0.65;85.47;94511.00;4821576;29;20049;-63
2021/12/20 08:38:36;;;;;;;38.35;16.15;;;;;;;0.19;87.83;94519.16;4820899;29;20061;-63
2021/12/20 08:41:03;;;;;;;35.63;16.20;;;;;;;0.67;86.91;94506.06;4817124;29;20072;-63
2021/12/20 08:43:30;;;;;;;34.20;15.60;;;;;;;0.97;85.40;94513.94;4822310;29;20511;-63
2021/12/20 08:45:59;;;;;;;29.48;14.50;;;;;;;0.90;85.38;94521.81;4821614;29;20177;-63
2021/12/20 08:48:26;;;;;;;30.73;14.73;;;;;;;1.03;84.80;94517.97;4822282;29;20054;-63
2021/12/20 08:50:53;;;;;;;31.40;13.90;;;;;;;1.05;84.29;94523.81;4833616;29;20110;-62
2021/12/20 08:53:20;;;;;;;34.88;15.68;;;;;;;1.29;83.52;94517.59;4840056;29;20167;-64
2021/12/20 08:55:47;;;;;;;38.55;16.23;;;;;;;1.49;83.09;94506.94;4840128;29;20403;-64
2021/12/20 08:58:14;;;;;;;38.97;16.50;;;;;;;1.57;82.28;94509.50;4839470;29;20046;-63
2021/12/20 09:00:40;;;;;;;44.70;18.80;;;;;;;1.52;82.38;94517.06;4839801;29;20392;-63
2021/12/20 09:03:07;;;;;;;33.60;14.77;;;;;;;1.65;81.69;94523.22;4839866;29;20053;-63
2021/12/20 09:05:35;;;;;;;30.98;13.63;;;;;;;1.69;81.72;94516.00;4840009;29;20057;-63
2021/12/20 09:08:04;;;;;;;27.50;12.60;;;;;;;1.81;81.33;94524.06;4838160;29;20058;-63
2021/12/20 09:10:33;;;;;;;24.13;11.48;;;;;;;1.78;80.25;94519.34;4839966;29;20042;-66
2021/12/20 09:13:01;;;;;;;23.03;11.23;;;;;;;1.84;80.21;94520.69;4839429;29;20050;-63
2021/12/20 09:15:29;;;;;;;24.48;10.98;;;;;;;1.97;79.92;94521.41;4839678;29;20503;-63
2021/12/20 09:17:56;;;;;;;28.15;12.88;;;;;;;1.30;81.42;94527.25;4853093;29;20423;-63
2021/12/20 09:20:26;;;;;;;30.75;13.90;;;;;;;1.11;83.26;94524.38;4838935;29;20046;-64
2021/12/20 09:22:56;;;;;;;29.17;13.82;;;;;;;1.44;82.39;94523.41;4839019;29;20080;-64
2021/12/20 09:25:27;;;;;;;27.13;12.90;;;;;;;1.59;82.04;94531.59;4838827;29;20519;-64
2021/12/20 09:27:56;;;;;;;26.70;12.48;;;;;;;1.69;81.26;94534.94;4837970;29;20054;-63
2021/12/20 09:30:26;;;;;;;25.17;11.77;;;;;;;1.46;81.33;94529.28;4840023;29;20056;-64
2021/12/20 09:32:59;;;;;;;24.27;10.48;;;;;;;1.12;82.22;94536.75;4839485;29;20415;-64
2021/12/20 09:35:27;;;;;;;19.02;9.80;;;;;;;1.38;81.24;94531.75;4839808;29;20048;-64
2021/12/20 09:37:54;;;;;;;22.33;10.90;;;;;;;1.60;81.18;94543.97;4838522;29;20058;-64
2021/12/20 09:40:31;;;;;;;22.27;9.63;;;;;;;1.90;80.15;94540.16;4839883;29;20052;-64
2021/12/20 09:43:02;;;;;;;20.23;9.60;;;;;;;2.17;79.35;94538.56;4839457;29;20058;-64
2021/12/20 09:45:30;;;;;;;20.08;9.57;;;;;;;2.32;77.82;94537.81;4839379;29;20042;-64
2021/12/20 09:47:57;;;;;;;21.65;10.57;;;;;;;2.66;77.41;94529.38;4838806;29;20054;-64
2021/12/20 09:50:25;;;;;;;22.93;10.60;;;;;;;2.96;76.69;94527.00;4839581;29;20500;-64
2021/12/20 09:52:52;;;;;;;20.20;10.40;;;;;;;4.26;72.69;94531.25;4838662;29;20117;-64
2021/12/20 09:55:19;;;;;;;18.95;9.82;;;;;;;4.55;70.60;94515.47;4838059;29;20045;-64
2021/12/20 09:57:49;;;;;;;19.83;9.73;;;;;;;5.16;68.66;94513.72;4839181;29;20057;-65
2021/12/20 10:00:19;;;;;;;18.48;8.90;;;;;;;5.59;65.58;94515.09;4838742;29;20048;-65
2021/12/20 10:02:47;;;;;;;16.53;8.70;;;;;;;8.02;58.12;94512.16;4839323;29;20059;-65
2021/12/20 10:05:17;;;;;;;13.35;7.43;;;;;;;8.92;54.35;94515.13;4838324;29;20049;-63
2021/12/20 10:07:50;;;;;;;16.13;8.30;;;;;;;8.23;54.65;94516.13;4838572;29;20056;-63
2021/12/20 10:10:41;;;;;;;15.20;9.23;;;;;;;7.29;58.23;94517.63;4838366;29;21548;-65
2021/12/20 10:13:21;;;;;;;19.42;10.80;;;;;;;6.81;60.98;94507.50;4838735;29;20050;-65
2021/12/20 10:15:48;;;;;;;19.27;10.87;;;;;;;8.05;56.95;94507.84;4838886;29;20058;-65
2021/12/20 10:18:15;;;;;;;20.83;11.85;;;;;;;5.13;65.58;94511.72;4839017;29;20072;-65
2021/12/20 10:20:49;;;;;;;24.58;12.02;;;;;;;4.65;68.62;94525.72;4839185;29;20053;-65
2021/12/20 10:23:26;;;;;;;22.10;11.63;;;;;;;4.32;68.95;94512.72;4838235;29;21640;-65
2021/12/20 10:25:56;;;;;;;19.17;10.13;;;;;;;5.59;66.34;94506.94;4838528;29;20124;-63
2021/12/20 10:28:34;;;;;;;26.77;14.20;;;;;;;5.73;63.75;94505.53;4802928;29;20053;-63
2021/12/20 10:31:03;;;;;;;8.27;4.05;;;;;;;4.83;59.09;94500.75;4802538;29;20059;-65
2021/12/20 10:33:30;;;;;;;9.43;4.07;;;;;;;5.20;58.55;94500.94;4803125;29;20051;-65
2021/12/20 10:36:06;;;;;;;14.65;7.88;;;;;;;3.43;66.32;94507.09;4813363;29;20066;-65
2021/12/20 10:38:37;;;;;;;14.57;8.57;;;;;;;3.51;68.12;94506.13;4809550;29;20472;-64
2021/12/20 10:41:12;;;;;;;7.00;3.37;;;;;;;3.53;62.60;94505.75;4808568;29;20047;-63
2021/12/20 10:43:50;;;;;;;8.32;3.63;;;;;;;2.35;65.05;94501.13;4808550;29;20065;-62
2021/12/20 10:46:19;;;;;;;14.15;7.10;;;;;;;1.64;75.83;94510.84;4807654;29;20485;-64
2021/12/20 10:48:49;;;;;;;5.68;2.70;;;;;;;2.18;63.76;94491.41;4808180;29;20066;-64
2021/12/20 10:51:24;;;;;;;15.45;3.65;;;;;;;2.43;65.92;94504.78;4837706;29;20396;-63
2021/12/20 10:53:59;;;;;;;5.17;2.27;;;;;;;2.78;63.50;94502.97;4844483;29;20057;-58
2021/12/20 10:56:28;;;;;;;8.43;2.72;;;;;;;2.99;63.01;94497.22;4845297;29;20492;-62
2021/12/20 10:58:57;;;;;;;7.53;2.70;;;;;;;2.76;62.50;94488.97;4842893;29;20050;-63
2021/12/20 11:04:24;;;;;;;9.40;2.67;;;;;;;3.00;61.83;94496.09;4830886;29;20058;-64
2021/12/20 11:09:04;;;;;;;16.33;2.90;;;;;;;2.63;62.81;94486.72;4827573;29;20058;-64
2021/12/20 11:10:00;;;;;;;6.43;2.00;;;;;;;6.28;52.84;94483.22;4826233;29;20102;-65
2021/12/20 11:12:31;;;;;;;8.50;2.17;;;;;;;10.41;43.09;94473.31;4825809;29;20095;-64
2021/12/20 11:15:01;;;;;;;17.70;2.70;;;;;;;11.91;38.84;94452.81;4824771;29;20062;-65
2021/12/20 11:17:28;;;;;;;8.95;2.42;;;;;;;14.03;33.98;94454.25;4825658;29;20065;-66
2021/12/20 11:19:56;;;;;;;16.17;2.70;;;;;;;15.50;32.16;94448.94;4826711;29;20059;-67
2021/12/20 11:22:24;;;;;;;7.15;2.17;;;;;;;15.27;30.23;94443.59;4826758;29;20061;-66
2021/12/20 11:25:11;;;;;;;8.15;2.40;;;;;;;18.52;26.25;94431.22;4826364;29;20046;-64
2021/12/20 11:27:51;;;;;;;5.13;1.90;;;;;;;15.04;29.33;94447.34;4826217;29;20161;-65
2021/12/20 11:30:21;;;;;;;13.50;2.90;;;;;;;12.06;33.68;94445.16;4824511;29;20697;-64
2021/12/20 11:32:49;;;;;;;18.40;3.50;;;;;;;5.93;45.83;94455.19;4826354;29;20048;-65
2021/12/20 11:35:20;;;;;;;9.88;2.53;;;;;;;5.78;47.43;94450.75;4825775;29;20200;-65
2021/12/20 11:37:47;;;;;;;7.65;2.60;;;;;;;5.20;48.67;94452.75;4825784;29;20065;-65
2021/12/20 11:40:16;;;;;;;9.07;2.55;;;;;;;4.47;51.66;94457.47;4844134;29;20057;-64
2021/12/20 11:42:43;;;;;;;6.82;2.63;;;;;;;4.29;51.78;94459.13;4844555;29;20121;-62
2021/12/20 11:45:14;;;;;;;12.50;3.10;;;;;;;4.64;51.16;94450.75;4838773;29;20043;-65
2021/12/20 11:47:56;;;;;;;9.75;2.90;;;;;;;4.05;52.65;94452.88;4804605;29;20065;-67
2021/12/20 11:50:35;;;;;;;8.65;2.70;;;;;;;4.31;52.14;94452.16;4804648;29;20571;-65
2021/12/20 11:53:09;;;;;;;7.15;2.67;;;;;;;4.42;51.92;94454.28;4804400;29;20046;-65
2021/12/20 11:55:43;;;;;;;8.27;2.97;;;;;;;5.71;49.46;94448.72;4805224;29;20057;-62